createdAt,value
2022-12-16T00:01:23.210Z,1.23
2022-12-16T00:03:55.677Z,1.03
2022-12-16T00:06:25.908Z,1.10
2022-12-16T00:08:53.666Z,0.70
2022-12-16T00:11:22.202Z,1.80
2022-12-16T00:13:49.487Z,0.70
2022-12-16T00:16:19.645Z,2.50
2022-12-16T00:18:47.630Z,0.80
2022-12-16T00:21:15.563Z,1.13
2022-12-16T00:23:43.287Z,1.20
2022-12-16T00:26:11.880Z,0.50
2022-12-16T00:28:40.036Z,1.13
2022-12-16T00:31:07.902Z,1.23
2022-12-16T00:33:36.008Z,0.83
2022-12-16T00:36:03.995Z,1.03
2022-12-16T00:38:31.335Z,0.77
2022-12-16T00:40:58.775Z,0.60
2022-12-16T00:43:26.268Z,0.80
2022-12-16T00:45:53.783Z,0.50
2022-12-16T00:48:23.382Z,1.43
2022-12-16T00:50:52.178Z,1.33
2022-12-16T00:53:20.655Z,0.80
2022-12-16T00:55:48.002Z,0.90
2022-12-16T00:58:15.692Z,0.53
2022-12-16T01:00:43.175Z,0.70
2022-12-16T01:03:10.453Z,1.33
2022-12-16T01:05:39.202Z,1.30
2022-12-16T01:08:06.583Z,1.57
2022-12-16T01:10:33.689Z,1.00
2022-12-16T01:13:01.007Z,2.17
2022-12-16T01:15:28.351Z,1.73
2022-12-16T01:17:55.771Z,0.70
2022-12-16T01:20:23.089Z,1.53
2022-12-16T01:22:50.357Z,1.03
2022-12-16T01:25:17.899Z,1.80
2022-12-16T01:27:45.089Z,0.93
2022-12-16T01:30:12.685Z,1.33
2022-12-16T01:32:39.992Z,1.40
2022-12-16T01:35:17.992Z,0.80
2022-12-16T01:37:54.907Z,2.37
2022-12-16T01:40:24.779Z,0.83
2022-12-16T01:42:51.941Z,0.60
2022-12-16T01:45:33.642Z,0.60
2022-12-16T01:48:20.323Z,1.17
2022-12-16T01:50:49.932Z,0.93
2022-12-16T01:53:17.156Z,1.40
2022-12-16T01:55:49.459Z,0.77
2022-12-16T01:58:26.135Z,0.70
2022-12-16T02:00:54.623Z,1.30
2022-12-16T02:03:22.803Z,0.90
2022-12-16T02:05:51.286Z,0.67
2022-12-16T02:08:20.900Z,1.13
2022-12-16T02:13:53.219Z,0.60
2022-12-16T02:16:39.641Z,2.23
2022-12-16T02:19:25.530Z,0.60
2022-12-16T02:22:30.299Z,0.63
2022-12-16T02:25:28.424Z,1.00
2022-12-16T02:31:53.091Z,0.63
2022-12-16T02:34:29.725Z,1.00
2022-12-16T02:37:14.701Z,0.67
2022-12-16T02:40:04.316Z,0.67
2022-12-16T02:42:37.532Z,0.93
2022-12-16T02:47:57.295Z,2.27
2022-12-16T02:50:30.844Z,0.77
2022-12-16T02:52:59.480Z,1.67
2022-12-16T02:55:40.731Z,2.07
2022-12-16T02:58:07.911Z,1.40
2022-12-16T03:03:45.557Z,1.23
2022-12-16T03:06:16.010Z,1.73
2022-12-16T03:08:48.464Z,0.63
2022-12-16T03:11:15.895Z,0.50
2022-12-16T03:13:48.214Z,1.33
2022-12-16T03:16:19.369Z,2.33
2022-12-16T03:22:01.027Z,1.07
2022-12-16T03:24:29.386Z,0.60
2022-12-16T03:27:13.075Z,1.20
2022-12-16T03:29:50.637Z,0.50
2022-12-16T03:32:28.446Z,2.63
2022-12-16T03:37:51.729Z,0.50
2022-12-16T03:40:21.683Z,0.77
2022-12-16T03:42:49.814Z,0.87
2022-12-16T03:45:22.854Z,0.60
2022-12-16T03:47:53.811Z,0.50
2022-12-16T03:53:18.653Z,0.50
2022-12-16T03:55:45.823Z,0.67
2022-12-16T03:58:12.849Z,0.50
2022-12-16T04:00:39.951Z,0.50
2022-12-16T04:03:07.353Z,0.63
2022-12-16T04:05:34.768Z,0.73
2022-12-16T04:08:02.464Z,0.50
2022-12-16T04:10:48.948Z,0.50
2022-12-16T04:13:48.333Z,0.97
2022-12-16T04:16:35.379Z,0.50
2022-12-16T04:19:21.959Z,0.40
2022-12-16T04:22:07.737Z,0.50
2022-12-16T04:27:27.914Z,0.50
2022-12-16T04:30:13.777Z,0.70
2022-12-16T04:32:59.376Z,0.70
2022-12-16T04:35:44.944Z,0.57
2022-12-16T04:38:30.429Z,0.80
2022-12-16T04:44:24.025Z,0.50
2022-12-16T04:47:10.066Z,1.37
2022-12-16T04:49:56.033Z,0.40
2022-12-16T04:52:42.160Z,0.60
2022-12-16T04:55:29.497Z,0.40
2022-12-16T05:01:23.219Z,0.60
2022-12-16T05:04:08.805Z,0.40
2022-12-16T05:06:54.617Z,0.40
2022-12-16T05:09:40.229Z,0.37
2022-12-16T05:12:26.022Z,0.60
2022-12-16T05:15:11.515Z,0.50
2022-12-16T05:17:57.284Z,0.80
2022-12-16T05:20:42.884Z,0.50
2022-12-16T05:23:28.403Z,0.50
2022-12-16T05:26:13.867Z,0.80
2022-12-16T05:28:59.664Z,0.60
2022-12-16T05:34:48.600Z,1.23
2022-12-16T05:37:34.093Z,0.50
2022-12-16T05:40:19.866Z,0.87
2022-12-16T05:43:06.674Z,0.50
2022-12-16T05:45:52.492Z,0.63
2022-12-16T05:48:39.303Z,0.50
2022-12-16T05:51:46.562Z,0.60
2022-12-16T05:54:33.987Z,0.40
2022-12-16T05:57:19.977Z,0.50
2022-12-16T06:00:05.819Z,0.50
2022-12-16T06:02:57.183Z,0.50
2022-12-16T06:05:43.317Z,0.50
2022-12-16T06:08:29.122Z,0.60
2022-12-16T06:11:14.897Z,0.97
2022-12-16T06:14:00.692Z,0.63
2022-12-16T06:16:46.473Z,0.50
2022-12-16T06:19:32.194Z,0.50
2022-12-16T06:22:17.879Z,1.13
2022-12-16T06:25:03.554Z,0.60
2022-12-16T06:27:53.508Z,0.77
2022-12-16T06:30:39.108Z,0.70
2022-12-16T06:33:24.554Z,0.73
2022-12-16T06:36:10.328Z,0.77
2022-12-16T06:38:56.050Z,0.83
2022-12-16T06:41:41.758Z,0.60
2022-12-16T06:44:27.382Z,0.53
2022-12-16T06:47:12.930Z,0.50
2022-12-16T06:49:58.386Z,0.60
2022-12-16T06:52:44.128Z,0.63
2022-12-16T06:55:29.681Z,0.70
2022-12-16T06:58:19.436Z,0.70
2022-12-16T07:01:05.225Z,0.60
2022-12-16T07:03:51.369Z,0.50
2022-12-16T07:06:37.118Z,0.60
2022-12-16T07:09:23.113Z,0.73
2022-12-16T07:12:08.696Z,0.70
2022-12-16T07:14:54.314Z,0.67
2022-12-16T07:17:39.951Z,0.80
2022-12-16T07:20:26.469Z,0.80
2022-12-16T07:23:33.253Z,0.80
2022-12-16T07:26:19.151Z,0.67
2022-12-16T07:29:05.059Z,0.83
2022-12-16T07:31:50.744Z,0.60
2022-12-16T07:34:41.289Z,0.80
2022-12-16T07:37:28.270Z,1.00
2022-12-16T07:40:13.854Z,0.60
2022-12-16T07:43:06.293Z,2.20
2022-12-16T07:45:52.085Z,0.90
2022-12-16T07:48:38.263Z,0.97
2022-12-16T07:51:23.973Z,0.80
2022-12-16T07:54:09.857Z,1.00
2022-12-16T07:56:55.638Z,0.80
2022-12-16T07:59:41.250Z,1.13
2022-12-16T08:02:29.348Z,1.33
2022-12-16T08:05:14.955Z,0.80
2022-12-16T08:08:01.554Z,1.17
2022-12-16T08:10:47.130Z,1.47
2022-12-16T08:13:33.742Z,3.40
2022-12-16T08:16:21.298Z,2.77
2022-12-16T08:19:11.237Z,2.30
2022-12-16T08:21:57.469Z,2.30
2022-12-16T08:24:46.810Z,1.10
2022-12-16T08:27:36.975Z,2.80
2022-12-16T08:30:23.119Z,3.40
2022-12-16T08:33:18.357Z,1.20
2022-12-16T08:36:06.329Z,2.40
2022-12-16T08:38:52.748Z,1.80
2022-12-16T08:41:39.575Z,1.70
2022-12-16T08:44:26.025Z,3.93
2022-12-16T08:47:11.760Z,3.13
2022-12-16T08:50:01.484Z,2.93
2022-12-16T08:52:49.445Z,3.73
2022-12-16T08:55:35.927Z,2.33
2022-12-16T08:58:22.068Z,2.00
2022-12-16T09:01:08.509Z,1.73
2022-12-16T09:04:03.003Z,3.07
2022-12-16T09:06:48.686Z,1.70
2022-12-16T09:09:34.944Z,2.33
2022-12-16T09:12:21.570Z,2.13
2022-12-16T09:15:09.247Z,1.87
2022-12-16T09:17:56.866Z,2.80
2022-12-16T09:20:44.962Z,4.23
2022-12-16T09:23:31.813Z,1.97
2022-12-16T09:26:18.090Z,4.03
2022-12-16T09:29:04.604Z,2.87
2022-12-16T09:31:51.050Z,2.10
2022-12-16T09:34:40.912Z,1.43
2022-12-16T09:37:27.439Z,2.70
2022-12-16T09:40:13.036Z,2.70
2022-12-16T09:43:20.033Z,3.93
2022-12-16T09:46:23.443Z,3.00
2022-12-16T09:49:20.258Z,2.87
2022-12-16T09:52:06.906Z,4.77
2022-12-16T09:54:56.127Z,4.53
2022-12-16T09:57:46.501Z,2.50
2022-12-16T10:00:46.995Z,2.40
2022-12-16T10:03:53.277Z,1.63
2022-12-16T10:07:05.355Z,2.77
2022-12-16T10:10:04.661Z,2.97
2022-12-16T10:13:18.805Z,3.53
2022-12-16T10:16:08.582Z,2.53
2022-12-16T10:19:18.895Z,2.53
2022-12-16T10:22:17.782Z,2.17
2022-12-16T10:25:33.003Z,1.87
2022-12-16T10:28:37.749Z,1.37
2022-12-16T10:31:53.963Z,1.23
2022-12-16T10:34:48.592Z,0.90
2022-12-16T10:37:47.387Z,1.13
2022-12-16T10:40:38.831Z,1.43
2022-12-16T10:43:37.704Z,1.40
2022-12-16T10:46:35.339Z,1.60
2022-12-16T10:49:20.876Z,0.97
2022-12-16T10:52:09.207Z,1.37
2022-12-16T10:55:03.377Z,1.70
2022-12-16T10:58:04.277Z,1.50
2022-12-16T11:01:06.391Z,1.30
2022-12-16T11:03:54.878Z,1.60
2022-12-16T11:06:56.529Z,2.30
2022-12-16T11:09:53.716Z,1.80
2022-12-16T11:12:50.562Z,2.33
2022-12-16T11:15:47.270Z,3.33
2022-12-16T11:18:35.979Z,6.07
2022-12-16T11:21:38.440Z,5.53
2022-12-16T11:24:37.135Z,5.10
2022-12-16T11:27:34.247Z,5.00
2022-12-16T11:30:35.659Z,5.93
2022-12-16T11:33:39.466Z,4.17
2022-12-16T11:36:46.178Z,3.70
2022-12-16T11:39:39.107Z,4.83
2022-12-16T11:42:29.147Z,3.03
2022-12-16T11:45:17.421Z,3.20
2022-12-16T11:48:36.126Z,4.77
2022-12-16T11:51:24.353Z,5.93
2022-12-16T11:54:18.032Z,5.37
2022-12-16T11:57:05.670Z,8.87
2022-12-16T11:59:59.512Z,4.53
2022-12-16T12:03:01.227Z,5.03
2022-12-16T12:06:14.931Z,5.10
2022-12-16T12:09:20.205Z,2.43
2022-12-16T12:12:17.665Z,3.43
2022-12-16T12:15:26.975Z,3.43
2022-12-16T12:18:23.228Z,3.20
2022-12-16T12:21:50.201Z,4.07
2022-12-16T12:24:57.990Z,2.97
2022-12-16T12:27:52.848Z,3.00
2022-12-16T12:30:43.798Z,2.20
2022-12-16T12:33:55.361Z,2.30
2022-12-16T12:37:00.727Z,2.27
2022-12-16T12:39:59.089Z,1.80
2022-12-16T12:43:03.963Z,2.27
2022-12-16T12:46:17.103Z,1.40
2022-12-16T12:49:12.665Z,2.33
2022-12-16T12:52:26.204Z,1.10
2022-12-16T12:55:50.177Z,1.27
2022-12-16T12:58:36.937Z,1.23
2022-12-16T13:01:26.936Z,0.80
2022-12-16T13:04:40.517Z,1.00
2022-12-16T13:07:27.038Z,1.20
2022-12-16T13:10:35.499Z,0.80
2022-12-16T13:13:36.684Z,1.40
2022-12-16T13:16:28.268Z,1.30
2022-12-16T13:19:48.814Z,2.13
2022-12-16T13:22:55.333Z,2.67
2022-12-16T13:26:03.856Z,2.43
2022-12-16T13:29:00.685Z,1.60
2022-12-16T13:31:49.273Z,2.47
2022-12-16T13:34:43.110Z,2.30
2022-12-16T13:37:43.684Z,2.30
2022-12-16T13:40:42.830Z,3.70
2022-12-16T13:44:05.627Z,3.03
2022-12-16T13:47:10.605Z,3.53
2022-12-16T13:50:01.940Z,13.07
2022-12-16T13:53:14.947Z,6.87
2022-12-16T13:56:07.193Z,5.70
2022-12-16T13:59:02.932Z,3.47
2022-12-16T14:02:06.460Z,2.50
2022-12-16T14:04:56.536Z,3.17
2022-12-16T14:08:07.959Z,4.47
2022-12-16T14:11:01.053Z,4.37
2022-12-16T14:13:59.101Z,3.27
2022-12-16T14:16:57.621Z,3.03
2022-12-16T14:20:05.629Z,2.63
2022-12-16T14:23:55.210Z,5.17
2022-12-16T14:26:36.485Z,4.70
2022-12-16T14:29:33.479Z,3.37
2022-12-16T14:32:21.558Z,3.50
2022-12-16T14:35:30.828Z,6.07
2022-12-16T14:38:17.233Z,4.03
2022-12-16T14:41:10.909Z,3.33
2022-12-16T14:44:02.194Z,3.40
2022-12-16T14:46:51.035Z,4.60
2022-12-16T14:49:45.821Z,6.40
2022-12-16T14:52:36.885Z,6.27
2022-12-16T14:55:53.107Z,4.13
2022-12-16T14:58:48.980Z,4.93
2022-12-16T15:01:43.852Z,6.23
2022-12-16T15:04:42.524Z,4.20
2022-12-16T15:07:35.388Z,4.87
2022-12-16T15:10:22.169Z,6.60
2022-12-16T15:13:09.497Z,4.97
2022-12-16T15:16:01.996Z,4.23
2022-12-16T15:18:58.261Z,4.50
2022-12-16T15:21:44.769Z,4.70
2022-12-16T15:24:37.390Z,9.67
2022-12-16T15:27:35.348Z,16.60
2022-12-16T15:30:51.897Z,11.87
2022-12-16T15:33:44.193Z,11.93
2022-12-16T15:36:55.489Z,7.07
2022-12-16T15:40:00.462Z,7.87
2022-12-16T15:42:48.811Z,9.03
2022-12-16T15:45:43.688Z,8.67
2022-12-16T15:48:38.610Z,7.17
2022-12-16T15:51:50.812Z,9.43
2022-12-16T15:54:50.382Z,8.60
2022-12-16T15:57:52.813Z,6.63
2022-12-16T16:01:19.218Z,12.33
2022-12-16T16:04:11.973Z,13.30
2022-12-16T16:07:03.881Z,14.60
2022-12-16T16:09:52.349Z,18.43
2022-12-16T16:12:41.858Z,21.73
2022-12-16T16:15:32.162Z,13.77
2022-12-16T16:18:25.057Z,9.90
2022-12-16T16:21:16.073Z,8.83
2022-12-16T16:24:05.400Z,8.17
2022-12-16T16:26:56.367Z,10.20
2022-12-16T16:29:48.290Z,9.57
2022-12-16T16:33:27.208Z,9.63
2022-12-16T16:36:13.321Z,7.47
2022-12-16T16:39:00.228Z,7.97
2022-12-16T16:41:48.779Z,8.57
2022-12-16T16:44:35.363Z,7.10
2022-12-16T16:47:20.921Z,6.80
2022-12-16T16:50:08.231Z,8.40
2022-12-16T16:52:56.511Z,9.10
2022-12-16T16:55:44.165Z,7.43
2022-12-16T16:58:47.257Z,9.47
2022-12-16T17:01:36.069Z,8.00
2022-12-16T17:04:27.573Z,6.43
2022-12-16T17:08:04.719Z,6.10
2022-12-16T17:10:51.286Z,4.27
2022-12-16T17:14:04.382Z,7.83
2022-12-16T17:16:51.459Z,4.77
2022-12-16T17:19:38.086Z,4.37
2022-12-16T17:22:27.866Z,14.37
2022-12-16T17:25:14.074Z,8.23
2022-12-16T17:28:04.213Z,16.83
2022-12-16T17:30:52.255Z,15.60
2022-12-16T17:33:43.201Z,7.53
2022-12-16T17:36:36.260Z,8.83
2022-12-16T17:39:24.896Z,6.93
2022-12-16T17:42:43.155Z,5.93
2022-12-16T17:45:36.936Z,5.53
2022-12-16T17:48:25.520Z,5.17
2022-12-16T17:51:13.274Z,6.40
2022-12-16T17:54:05.843Z,3.57
2022-12-16T17:56:56.839Z,4.10
2022-12-16T17:59:43.449Z,3.63
2022-12-16T18:02:35.250Z,3.53
2022-12-16T18:05:21.863Z,4.20
2022-12-16T18:08:10.281Z,4.00
2022-12-16T18:10:56.727Z,4.17
2022-12-16T18:13:44.354Z,3.67
2022-12-16T18:16:30.286Z,3.10
2022-12-16T18:19:16.172Z,2.97
2022-12-16T18:22:04.720Z,3.47
2022-12-16T18:25:20.149Z,2.90
2022-12-16T18:28:08.804Z,2.47
2022-12-16T18:30:57.684Z,2.60
2022-12-16T18:33:43.842Z,3.93
2022-12-16T18:36:35.056Z,2.20
2022-12-16T18:39:21.782Z,3.10
2022-12-16T18:42:09.956Z,3.93
2022-12-16T18:48:14.273Z,3.03
2022-12-16T18:51:04.504Z,2.10
2022-12-16T18:54:03.690Z,3.70
2022-12-16T18:56:59.357Z,3.87
2022-12-16T18:59:46.488Z,2.93
2022-12-16T19:02:35.433Z,3.53
2022-12-16T19:05:26.356Z,3.53
2022-12-16T19:08:15.678Z,3.80
2022-12-16T19:11:02.832Z,3.30
2022-12-16T19:14:51.421Z,3.90
2022-12-16T19:20:56.730Z,3.70
2022-12-16T19:36:27.446Z,2.13
2022-12-16T19:39:36.440Z,2.13
2022-12-16T19:42:23.470Z,3.80
2022-12-16T19:45:10.227Z,2.97
2022-12-16T19:48:12.422Z,2.67
2022-12-16T19:51:19.895Z,2.27
2022-12-16T19:58:17.528Z,2.40
2022-12-16T20:01:13.707Z,2.43
2022-12-16T20:04:19.092Z,2.13
2022-12-16T20:07:10.707Z,4.40
2022-12-16T20:10:02.773Z,3.53
2022-12-16T20:12:50.180Z,3.23
2022-12-16T20:15:39.162Z,4.17
2022-12-16T20:18:27.494Z,2.60
2022-12-16T20:25:05.980Z,1.50
2022-12-16T20:27:52.341Z,2.83
2022-12-16T20:30:39.446Z,2.10
2022-12-16T20:33:33.401Z,2.30
2022-12-16T20:36:25.653Z,2.87
2022-12-16T20:39:11.330Z,3.43
2022-12-16T20:41:57.945Z,3.20
2022-12-16T20:44:53.522Z,2.93
2022-12-16T20:48:42.958Z,1.87
2022-12-16T20:56:27.302Z,2.20
2022-12-16T20:59:20.816Z,3.93
2022-12-16T21:02:23.207Z,2.33
2022-12-16T21:05:22.143Z,2.50
2022-12-16T21:08:09.033Z,2.03
2022-12-16T21:20:36.938Z,2.57
2022-12-16T21:24:17.493Z,2.83
2022-12-16T21:27:04.392Z,3.37
2022-12-16T21:29:53.132Z,3.23
2022-12-16T21:32:45.198Z,5.57
2022-12-16T21:35:48.199Z,4.70
2022-12-16T21:41:58.934Z,5.17
2022-12-16T21:44:45.489Z,3.70
2022-12-16T21:47:32.903Z,4.03
2022-12-16T21:50:21.216Z,2.10
2022-12-16T21:53:07.796Z,2.37
2022-12-16T21:55:54.389Z,3.60
2022-12-16T21:58:42.519Z,2.10
2022-12-16T22:01:31.396Z,1.53
2022-12-16T22:04:17.107Z,1.33
2022-12-16T22:07:03.772Z,2.13
2022-12-16T22:09:52.460Z,2.20
2022-12-16T22:12:47.482Z,1.20
2022-12-16T22:15:33.670Z,2.20
2022-12-16T22:18:21.451Z,1.40
2022-12-16T22:21:22.730Z,1.03
2022-12-16T22:24:09.617Z,1.70
2022-12-16T22:27:02.933Z,2.37
2022-12-16T22:29:49.951Z,1.13
2022-12-16T22:32:35.640Z,2.87
2022-12-16T22:35:22.183Z,1.63
2022-12-16T22:38:07.774Z,1.93
2022-12-16T22:40:53.753Z,1.27
2022-12-16T22:43:50.641Z,1.90
2022-12-16T22:46:38.513Z,1.60
2022-12-16T22:49:24.270Z,1.27
2022-12-16T22:52:12.635Z,2.70
2022-12-16T22:54:58.449Z,1.37
2022-12-16T22:57:50.858Z,2.00
2022-12-16T23:00:40.104Z,1.57
2022-12-16T23:03:26.459Z,1.00
2022-12-16T23:06:12.687Z,1.00
2022-12-16T23:09:03.230Z,1.07
2022-12-16T23:11:58.145Z,1.50
2022-12-16T23:14:45.370Z,0.97
2022-12-16T23:17:32.550Z,1.83
2022-12-16T23:20:19.717Z,1.33
2022-12-16T23:23:06.122Z,1.53
2022-12-16T23:25:52.546Z,1.07
2022-12-16T23:28:38.608Z,1.27
2022-12-16T23:31:26.731Z,1.07
2022-12-16T23:34:13.383Z,1.60
2022-12-16T23:36:59.210Z,1.40
2022-12-16T23:39:45.412Z,1.10
2022-12-16T23:42:33.052Z,1.20
2022-12-16T23:45:18.755Z,1.10
2022-12-16T23:48:04.503Z,0.60
2022-12-16T23:50:50.198Z,0.50
2022-12-16T23:53:36.034Z,0.70
2022-12-16T23:56:22.258Z,0.77
2022-12-16T23:59:08.114Z,0.60
